Time;durP1;ratioP1;P1;durP2;ratioP2;P2;SDS_P1;SDS_P2;PMS_P1;PMS_P2;Temp;Humidity;BMP_temperature;BMP_pressure;BME280_temperature;BME280_humidity;BME280_pressure;Samples;Min_cycle;Max_cycle;Signal;HPM_P1;HPM_P2
2022/12/31 00:00:39;;;;;;;47.2;29.9;;;;;;;0;88.6;98890;;;;
2022/12/31 00:10:40;;;;;;;47.2;29.9;;;;;;;-0.1;89;98890;;;;
2022/12/31 00:21:39;;;;;;;47.2;29.9;;;;;;;-0.2;89.2;98890;;;;
2022/12/31 00:31:39;;;;;;;48.4;28;;;;;;;-0.1;89.4;98880;;;;
2022/12/31 00:42:39;;;;;;;48.4;28;;;;;;;-0.1;89.4;98890;;;;
2022/12/31 00:52:39;;;;;;;48.4;28;;;;;;;-0.2;89.2;98900;;;;
2022/12/31 01:03:39;;;;;;;50.9;31.2;;;;;;;-0.1;89.2;98880;;;;
2022/12/31 01:13:39;;;;;;;50.9;31.2;;;;;;;0;89.3;98870;;;;
2022/12/31 01:24:39;;;;;;;43.4;29.2;;;;;;;0;89.2;98860;;;;
2022/12/31 01:35:39;;;;;;;43.4;29.2;;;;;;;0;89.2;98860;;;;
2022/12/31 01:45:39;;;;;;;43.4;29.2;;;;;;;0.1;89.3;98860;;;;
2022/12/31 01:56:39;;;;;;;41.9;29.5;;;;;;;0.4;89.5;98860;;;;
2022/12/31 02:06:39;;;;;;;41.9;29.5;;;;;;;0.5;89.6;98870;;;;
2022/12/31 02:17:39;;;;;;;41.9;29.5;;;;;;;0.5;89.6;98870;;;;
2022/12/31 02:27:39;;;;;;;41.1;25.4;;;;;;;0.8;89.9;98870;;;;
2022/12/31 02:38:41;;;;;;;41.1;25.4;;;;;;;1.1;89.9;98870;;;;
2022/12/31 02:48:39;;;;;;;41.1;25.4;;;;;;;1.2;89.8;98880;;;;
2022/12/31 03:09:11;;;;;;;43.9;26.5;;;;;;;1.4;89.6;98880;;;;
2022/12/31 03:29:39;;;;;;;40.3;26.6;;;;;;;1.5;89;98840;;;;
2022/12/31 03:39:39;;;;;;;40.3;26.6;;;;;;;1.5;88.9;98820;;;;
2022/12/31 03:50:39;;;;;;;40.3;26.6;;;;;;;1.5;88.9;98840;;;;
2022/12/31 04:01:39;;;;;;;40.7;25.7;;;;;;;1.5;88.5;98880;;;;
2022/12/31 04:12:39;;;;;;;40.7;25.7;;;;;;;1.9;89;98880;;;;
2022/12/31 04:22:39;;;;;;;40.7;25.7;;;;;;;2.7;90.3;98880;;;;
2022/12/31 04:32:39;;;;;;;39.2;25;;;;;;;3.5;91.2;98870;;;;
2022/12/31 04:43:39;;;;;;;39.2;25;;;;;;;4.6;92.2;98880;;;;
2022/12/31 04:53:39;;;;;;;14.2;10.2;;;;;;;5.9;90.2;98870;;;;
2022/12/31 05:04:39;;;;;;;14.2;10.2;;;;;;;6.9;86.6;98890;;;;
2022/12/31 05:15:39;;;;;;;14.2;10.2;;;;;;;7.4;84.7;98900;;;;
2022/12/31 05:26:40;;;;;;;7.7;4.8;;;;;;;7.9;83;98900;;;;
2022/12/31 05:36:39;;;;;;;7.7;4.8;;;;;;;8.2;82.2;98900;;;;
2022/12/31 05:47:39;;;;;;;7.7;4.8;;;;;;;8.4;81.8;98910;;;;
2022/12/31 05:58:39;;;;;;;5.9;3.2;;;;;;;8.5;81.7;98900;;;;
2022/12/31 06:09:39;;;;;;;5.9;3.2;;;;;;;8.8;81.5;98910;;;;
2022/12/31 06:19:39;;;;;;;5.9;3.2;;;;;;;9;81.5;98920;;;;
2022/12/31 06:30:39;;;;;;;4.3;2.3;;;;;;;9.1;81.5;98940;;;;
2022/12/31 06:40:39;;;;;;;4.3;2.3;;;;;;;9.1;81.3;98950;;;;
2022/12/31 06:50:39;;;;;;;4.3;2.3;;;;;;;9.2;81.3;98950;;;;
2022/12/31 07:01:39;;;;;;;3.8;2.2;;;;;;;9.4;80.9;98950;;;;
2022/12/31 07:11:39;;;;;;;3.8;2.2;;;;;;;9.7;79.9;98950;;;;
2022/12/31 07:22:39;;;;;;;3.8;2.2;;;;;;;10;78.8;98960;;;;
2022/12/31 07:32:39;;;;;;;4.7;2.4;;;;;;;10.2;78.3;98960;;;;
2022/12/31 07:43:39;;;;;;;4.7;2.4;;;;;;;10.3;78.1;98970;;;;
2022/12/31 07:53:39;;;;;;;3.8;2.2;;;;;;;10.4;78.2;98960;;;;
2022/12/31 08:04:39;;;;;;;3.8;2.2;;;;;;;10.6;77.7;98990;;;;
2022/12/31 08:15:39;;;;;;;3.8;2.2;;;;;;;10.8;77.4;98980;;;;
2022/12/31 08:26:39;;;;;;;3.9;2.2;;;;;;;11.1;77.3;98980;;;;
2022/12/31 08:36:39;;;;;;;3.9;2.2;;;;;;;11.4;76.2;98980;;;;
2022/12/31 08:46:39;;;;;;;3.9;2.2;;;;;;;11.6;75.9;98990;;;;
2022/12/31 08:56:39;;;;;;;5.3;2.3;;;;;;;11.7;75.6;99000;;;;
2022/12/31 09:07:39;;;;;;;5.3;2.3;;;;;;;11.8;75.2;99010;;;;
2022/12/31 09:17:39;;;;;;;5.3;2.3;;;;;;;12;74.9;99000;;;;
2022/12/31 09:28:39;;;;;;;4.3;2.2;;;;;;;12.4;74;99010;;;;
2022/12/31 09:38:39;;;;;;;4.3;2.2;;;;;;;12.5;73.8;98990;;;;
2022/12/31 09:48:39;;;;;;;4.3;2.2;;;;;;;12.6;73.8;98990;;;;
2022/12/31 09:59:39;;;;;;;6.9;3.6;;;;;;;12.8;73.1;98970;;;;
2022/12/31 10:10:39;;;;;;;6.9;3.6;;;;;;;13.1;72.8;98960;;;;
2022/12/31 10:20:39;;;;;;;6.9;3.6;;;;;;;13.4;72.2;98990;;;;
2022/12/31 10:31:39;;;;;;;5.5;3;;;;;;;13.9;71.7;98990;;;;
2022/12/31 10:41:39;;;;;;;5.5;3;;;;;;;14;71.4;98970;;;;
2022/12/31 10:52:41;;;;;;;5.5;3;;;;;;;14;71.6;98970;;;;
2022/12/31 11:02:39;;;;;;;4.4;2.5;;;;;;;13.7;71.5;98970;;;;
2022/12/31 11:12:39;;;;;;;4.4;2.5;;;;;;;13.5;71.9;98970;;;;
2022/12/31 11:23:39;;;;;;;4.1;2.3;;;;;;;13.7;71.6;98990;;;;
2022/12/31 11:34:39;;;;;;;4.1;2.3;;;;;;;13.8;71.4;98980;;;;
2022/12/31 11:44:39;;;;;;;4.1;2.3;;;;;;;13.9;71.5;98980;;;;
2022/12/31 11:55:39;;;;;;;3.2;1.7;;;;;;;13.9;71.6;98970;;;;
2022/12/31 12:05:39;;;;;;;3.2;1.7;;;;;;;13.8;71.8;98960;;;;
2022/12/31 12:16:39;;;;;;;3.2;1.7;;;;;;;13.8;71.7;98950;;;;
2022/12/31 12:26:40;;;;;;;4.6;2.7;;;;;;;13.9;71.4;98950;;;;
2022/12/31 12:36:39;;;;;;;4.6;2.7;;;;;;;13.8;71.3;98960;;;;
2022/12/31 12:47:39;;;;;;;4.6;2.7;;;;;;;13.8;71.3;98950;;;;
2022/12/31 12:57:39;;;;;;;5.4;2.7;;;;;;;13.6;72;98950;;;;
2022/12/31 13:07:39;;;;;;;5.4;2.7;;;;;;;13.4;72.7;98960;;;;
2022/12/31 13:17:39;;;;;;;5.4;2.7;;;;;;;13.4;73;98940;;;;
2022/12/31 13:28:41;;;;;;;4.8;2.4;;;;;;;13.2;73.6;98960;;;;
2022/12/31 13:39:39;;;;;;;4.8;2.4;;;;;;;13.2;73.9;98950;;;;
2022/12/31 13:49:39;;;;;;;4.8;2.4;;;;;;;13.2;74.1;98960;;;;
2022/12/31 14:00:39;;;;;;;5.3;3;;;;;;;13.2;74.4;98980;;;;
2022/12/31 14:11:39;;;;;;;5.3;3;;;;;;;13.2;74.6;98980;;;;
2022/12/31 14:21:39;;;;;;;5.3;3;;;;;;;13.2;74.6;98970;;;;
2022/12/31 14:31:39;;;;;;;6;3.7;;;;;;;13.1;74.5;98990;;;;
2022/12/31 14:41:39;;;;;;;6;3.7;;;;;;;13;74.6;98990;;;;
2022/12/31 14:52:41;;;;;;;5.3;3.2;;;;;;;12.8;75.1;98980;;;;
2022/12/31 15:02:39;;;;;;;5.3;3.2;;;;;;;12.5;75.9;98990;;;;
2022/12/31 15:13:39;;;;;;;5.3;3.2;;;;;;;12.4;76.2;99000;;;;
2022/12/31 15:23:41;;;;;;;17.9;11.8;;;;;;;12.4;76.7;99000;;;;
2022/12/31 15:33:39;;;;;;;17.9;11.8;;;;;;;12.4;76.4;98990;;;;
2022/12/31 15:43:39;;;;;;;17.9;11.8;;;;;;;12.4;76.4;99010;;;;
2022/12/31 15:54:39;;;;;;;8.3;4.5;;;;;;;12.6;76;99020;;;;
2022/12/31 16:04:41;;;;;;;8.3;4.5;;;;;;;12.7;75.7;99020;;;;
2022/12/31 16:14:40;;;;;;;8.3;4.5;;;;;;;12.8;75.3;99020;;;;
2022/12/31 16:25:40;;;;;;;8.5;4.8;;;;;;;12.8;75.2;99030;;;;
2022/12/31 16:35:39;;;;;;;8.5;4.8;;;;;;;12.9;75;99030;;;;
2022/12/31 16:46:39;;;;;;;8.5;4.8;;;;;;;13.2;74;99050;;;;
2022/12/31 16:56:39;;;;;;;13.8;6.4;;;;;;;13.4;73.4;99060;;;;
2022/12/31 17:06:39;;;;;;;13.8;6.4;;;;;;;13.6;72.7;99070;;;;
2022/12/31 17:17:39;;;;;;;13.8;6.4;;;;;;;13.6;72.2;99070;;;;
2022/12/31 17:27:39;;;;;;;6.7;4.7;;;;;;;13.8;71.6;99060;;;;
2022/12/31 17:38:39;;;;;;;6.7;4.7;;;;;;;13.8;71.3;99050;;;;
2022/12/31 17:48:39;;;;;;;6.7;4.7;;;;;;;13.7;71.3;99060;;;;
2022/12/31 17:59:39;;;;;;;9.7;5.4;;;;;;;13.7;71.2;99070;;;;
2022/12/31 18:09:39;;;;;;;9.7;5.4;;;;;;;13.7;71.1;99080;;;;
2022/12/31 18:19:39;;;;;;;9.7;5.4;;;;;;;13.7;71;99080;;;;
2022/12/31 18:29:39;;;;;;;7.1;4.8;;;;;;;13.7;70.9;99060;;;;
2022/12/31 18:40:42;;;;;;;7.1;4.8;;;;;;;13.8;70.6;99090;;;;
2022/12/31 18:51:39;;;;;;;7.1;4.8;;;;;;;14;69.8;99080;;;;
2022/12/31 19:02:39;;;;;;;7.8;4.8;;;;;;;13.9;69.8;99080;;;;
2022/12/31 19:12:39;;;;;;;7.8;4.8;;;;;;;13.9;69.6;99080;;;;
2022/12/31 19:22:40;;;;;;;7.8;4.4;;;;;;;14;69.4;99090;;;;
2022/12/31 19:32:39;;;;;;;7.8;4.4;;;;;;;13.9;69.5;99090;;;;
2022/12/31 19:43:39;;;;;;;7.8;4.4;;;;;;;13.8;69.4;99090;;;;
2022/12/31 19:53:39;;;;;;;10.4;5.4;;;;;;;13.7;69.7;99090;;;;
2022/12/31 20:03:39;;;;;;;10.4;5.4;;;;;;;13.6;70;99110;;;;
2022/12/31 20:13:39;;;;;;;10.4;5.4;;;;;;;13.5;70.3;99100;;;;
2022/12/31 20:24:39;;;;;;;6.2;4.1;;;;;;;13.5;70.2;99120;;;;
2022/12/31 20:34:39;;;;;;;6.2;4.1;;;;;;;13.5;69.9;99110;;;;
2022/12/31 20:44:40;;;;;;;6.2;4.1;;;;;;;13.6;69.3;99120;;;;
2022/12/31 20:55:39;;;;;;;7.1;4;;;;;;;13.7;69;99130;;;;
2022/12/31 21:05:39;;;;;;;7.1;4;;;;;;;13.9;68.3;99110;;;;
2022/12/31 21:15:39;;;;;;;7.1;4;;;;;;;14.1;67.5;99090;;;;
2022/12/31 21:26:39;;;;;;;5.9;3.8;;;;;;;14.4;66.7;99090;;;;
2022/12/31 21:37:40;;;;;;;5.9;3.8;;;;;;;14.4;66.6;99090;;;;
2022/12/31 21:48:24;;;;;;;5.9;3.8;;;;;;;14.5;66.2;99090;;;;
2022/12/31 21:58:39;;;;;;;6;3.2;;;;;;;14.5;66.1;99100;;;;
2022/12/31 22:08:39;;;;;;;6;3.2;;;;;;;14.4;66.5;99100;;;;
2022/12/31 22:19:39;;;;;;;6;3.2;;;;;;;14.3;66.3;99100;;;;
2022/12/31 22:29:39;;;;;;;6.5;3.4;;;;;;;14.2;66.5;99100;;;;
2022/12/31 22:39:39;;;;;;;6.5;3.4;;;;;;;14.2;66.4;99100;;;;
2022/12/31 22:49:39;;;;;;;6.5;3.4;;;;;;;14.3;66.3;99110;;;;
2022/12/31 22:59:40;;;;;;;5.8;3.5;;;;;;;14.1;66.3;99110;;;;
2022/12/31 23:31:39;;;;;;;9.4;6.1;;;;;;;14.1;65.8;99100;;;;
2022/12/31 23:41:39;;;;;;;9.4;6.1;;;;;;;14.4;64.8;99110;;;;
2022/12/31 23:52:39;;;;;;;6.5;3.8;;;;;;;14.7;63;99100;;;;
